createdAt,value
2023-03-15T00:02:19.867Z,10.23
2023-03-15T00:05:21.874Z,9.23
2023-03-15T00:08:23.862Z,6.68
2023-03-15T00:11:25.901Z,3.78
2023-03-15T00:14:27.936Z,7.00
2023-03-15T00:17:29.942Z,5.80
2023-03-15T00:20:32.283Z,5.55
2023-03-15T00:23:34.321Z,6.18
2023-03-15T00:26:36.426Z,4.70
2023-03-15T00:29:38.414Z,7.17
2023-03-15T00:32:40.979Z,7.70
2023-03-15T00:35:44.235Z,8.07
2023-03-15T00:38:46.407Z,7.80
2023-03-15T00:41:48.512Z,8.18
2023-03-15T00:44:50.659Z,10.55
2023-03-15T00:47:53.818Z,8.70
2023-03-15T00:51:06.411Z,10.03
2023-03-15T00:54:09.535Z,10.00
2023-03-15T00:57:11.576Z,10.38
2023-03-15T01:00:15.293Z,11.75
2023-03-15T01:03:17.479Z,10.68
2023-03-15T01:06:27.147Z,9.38
2023-03-15T01:09:30.668Z,8.52
2023-03-15T01:12:33.389Z,9.13
2023-03-15T01:15:35.376Z,7.35
2023-03-15T01:18:38.015Z,10.93
2023-03-15T01:21:40.136Z,9.98
2023-03-15T01:24:42.191Z,8.57
2023-03-15T01:27:44.274Z,7.43
2023-03-15T01:30:50.651Z,7.45
2023-03-15T01:33:52.708Z,7.63
2023-03-15T01:36:55.142Z,15.23
2023-03-15T01:40:02.137Z,7.80
2023-03-15T01:43:05.161Z,8.90
2023-03-15T01:46:14.476Z,7.90
2023-03-15T01:49:31.164Z,7.38
2023-03-15T01:52:37.558Z,7.05
2023-03-15T01:55:41.017Z,7.50
2023-03-15T01:58:47.716Z,6.93
2023-03-15T02:01:50.908Z,4.45
2023-03-15T02:04:59.124Z,7.50
2023-03-15T02:08:02.670Z,4.68
2023-03-15T02:11:08.194Z,4.93
2023-03-15T02:14:12.045Z,4.22
2023-03-15T02:17:16.446Z,4.90
2023-03-15T02:20:27.512Z,4.18
2023-03-15T02:23:30.167Z,3.38
2023-03-15T02:26:40.651Z,4.53
2023-03-15T02:29:42.730Z,4.20
2023-03-15T02:32:44.831Z,3.97
2023-03-15T02:35:46.926Z,3.73
2023-03-15T02:38:49.772Z,3.15
2023-03-15T02:41:57.002Z,4.78
2023-03-15T02:44:59.090Z,4.70
2023-03-15T02:48:03.904Z,3.13
2023-03-15T02:51:06.071Z,4.05
2023-03-15T02:54:08.287Z,4.72
2023-03-15T02:57:11.274Z,4.60
2023-03-15T03:00:14.576Z,4.38
2023-03-15T03:03:17.932Z,3.60
2023-03-15T03:06:19.913Z,4.60
2023-03-15T03:09:23.900Z,4.20
2023-03-15T03:12:26.346Z,4.40
2023-03-15T03:15:28.539Z,4.10
2023-03-15T03:18:31.980Z,4.45
2023-03-15T03:21:34.279Z,5.97
2023-03-15T03:24:36.374Z,3.15
2023-03-15T03:27:39.459Z,3.23
2023-03-15T03:30:43.579Z,4.13
2023-03-15T03:33:45.710Z,3.95
2023-03-15T03:36:48.771Z,3.80
2023-03-15T03:39:55.558Z,2.30
2023-03-15T03:42:57.546Z,3.38
2023-03-15T03:45:59.749Z,4.00
2023-03-15T03:49:02.476Z,4.20
2023-03-15T03:52:04.717Z,2.85
2023-03-15T03:55:06.972Z,3.65
2023-03-15T03:58:09.245Z,2.67
2023-03-15T04:01:25.604Z,3.60
2023-03-15T04:04:29.768Z,3.03
2023-03-15T04:07:32.356Z,3.53
2023-03-15T04:10:35.221Z,3.83
2023-03-15T04:13:37.717Z,4.20
2023-03-15T04:16:40.752Z,4.47
2023-03-15T04:19:48.051Z,6.55
2023-03-15T04:22:54.995Z,4.85
2023-03-15T04:26:14.830Z,3.67
2023-03-15T04:29:34.779Z,6.47
2023-03-15T04:32:59.206Z,5.90
2023-03-15T04:36:19.037Z,5.13
2023-03-15T04:39:42.889Z,4.73
2023-03-15T04:43:20.652Z,5.97
2023-03-15T04:46:40.811Z,6.15
2023-03-15T04:50:11.855Z,5.18
2023-03-15T04:53:52.118Z,4.72
2023-03-15T04:57:22.968Z,4.50
2023-03-15T05:00:25.011Z,5.43
2023-03-15T05:03:39.204Z,6.57
2023-03-15T05:06:53.156Z,5.53
2023-03-15T05:10:21.715Z,5.72
2023-03-15T05:13:50.198Z,4.77
2023-03-15T05:17:10.755Z,3.75
2023-03-15T05:20:32.125Z,5.78
2023-03-15T05:24:04.125Z,4.07
2023-03-15T05:27:13.730Z,3.90
2023-03-15T05:30:29.783Z,4.53
2023-03-15T05:33:58.109Z,4.05
2023-03-15T05:37:02.650Z,3.77
2023-03-15T05:40:08.180Z,5.20
2023-03-15T05:43:26.587Z,7.38
2023-03-15T05:47:00.930Z,4.80
2023-03-15T05:50:23.303Z,5.32
2023-03-15T05:53:32.203Z,4.70
2023-03-15T05:56:46.500Z,5.32
2023-03-15T06:00:10.015Z,5.07
2023-03-15T06:03:17.953Z,3.90
2023-03-15T06:06:32.637Z,4.40
2023-03-15T06:09:36.616Z,4.23
2023-03-15T06:12:39.660Z,6.90
2023-03-15T06:15:41.902Z,3.72
2023-03-15T06:18:45.475Z,4.90
2023-03-15T06:21:47.770Z,2.80
2023-03-15T06:24:57.907Z,3.75
2023-03-15T06:28:00.025Z,4.13
2023-03-15T06:31:07.819Z,3.78
2023-03-15T06:34:14.921Z,4.60
2023-03-15T06:37:28.847Z,5.90
2023-03-15T06:40:36.744Z,5.13
2023-03-15T06:43:38.849Z,4.38
2023-03-15T06:46:41.382Z,4.97
2023-03-15T06:49:43.534Z,4.60
2023-03-15T06:52:46.706Z,4.57
2023-03-15T06:55:50.780Z,4.60
2023-03-15T06:58:52.836Z,7.18
2023-03-15T07:01:54.904Z,11.25
2023-03-15T07:04:56.936Z,6.18
2023-03-15T07:07:59.052Z,4.05
2023-03-15T07:11:02.384Z,4.70
2023-03-15T07:14:04.473Z,6.78
2023-03-15T07:17:06.659Z,5.07
2023-03-15T07:20:09.093Z,4.70
2023-03-15T07:23:11.140Z,5.32
2023-03-15T07:26:13.115Z,3.88
2023-03-15T07:29:15.253Z,5.75
2023-03-15T07:32:17.386Z,5.60
2023-03-15T07:35:19.533Z,7.20
2023-03-15T07:38:26.332Z,6.78
2023-03-15T07:41:28.380Z,6.50
2023-03-15T07:44:40.019Z,6.80
2023-03-15T07:47:42.083Z,5.28
2023-03-15T07:50:45.145Z,5.37
2023-03-15T07:53:47.148Z,7.13
2023-03-15T07:56:49.175Z,5.85
2023-03-15T07:59:53.491Z,6.43
2023-03-15T08:02:55.527Z,5.05
2023-03-15T08:05:57.680Z,6.97
2023-03-15T08:09:01.668Z,4.78
2023-03-15T08:12:03.809Z,4.87
2023-03-15T08:15:05.992Z,9.48
2023-03-15T08:18:08.066Z,5.35
2023-03-15T08:21:10.121Z,5.73
2023-03-15T08:24:12.540Z,6.65
2023-03-15T08:27:14.598Z,5.30
2023-03-15T08:30:17.348Z,9.10
2023-03-15T08:33:19.438Z,7.78
2023-03-15T08:36:21.777Z,4.97
2023-03-15T08:39:24.075Z,7.55
2023-03-15T08:42:26.080Z,9.23
2023-03-15T08:45:28.158Z,8.27
2023-03-15T08:48:31.641Z,6.10
2023-03-15T08:51:33.787Z,8.50
2023-03-15T08:54:36.047Z,10.35
2023-03-15T08:57:38.106Z,6.15
2023-03-15T09:00:40.671Z,6.40
2023-03-15T09:03:42.727Z,16.67
2023-03-15T09:06:45.017Z,7.95
2023-03-15T09:09:48.319Z,7.93
2023-03-15T09:12:52.318Z,8.43
2023-03-15T09:15:55.070Z,6.40
2023-03-15T09:18:57.078Z,3.95
2023-03-15T09:22:10.812Z,6.17
2023-03-15T09:25:21.722Z,6.00
2023-03-15T09:28:25.640Z,5.30
2023-03-15T09:31:27.724Z,6.00
2023-03-15T09:34:33.268Z,5.22
2023-03-15T09:37:42.619Z,7.85
2023-03-15T09:40:45.575Z,4.63
2023-03-15T09:43:47.585Z,7.83
2023-03-15T09:47:01.964Z,5.05
2023-03-15T09:50:27.036Z,8.40
2023-03-15T09:53:47.729Z,8.83
2023-03-15T09:56:56.334Z,10.20
2023-03-15T09:59:59.073Z,7.35
2023-03-15T10:03:03.426Z,6.22
2023-03-15T10:06:19.985Z,7.38
2023-03-15T10:09:23.147Z,7.32
2023-03-15T10:12:34.013Z,9.25
2023-03-15T10:15:54.166Z,7.17
2023-03-15T10:18:58.956Z,5.47
2023-03-15T10:22:01.058Z,5.75
2023-03-15T10:25:03.054Z,5.93
2023-03-15T10:28:08.084Z,6.30
2023-03-15T10:31:22.480Z,5.85
2023-03-15T10:34:27.934Z,7.03
2023-03-15T10:37:29.946Z,5.90
2023-03-15T10:40:39.261Z,10.32
2023-03-15T10:43:41.688Z,9.95
2023-03-15T10:47:02.630Z,8.30
2023-03-15T10:50:05.087Z,7.65
2023-03-15T10:53:11.331Z,8.10
2023-03-15T10:56:19.743Z,11.10
2023-03-15T10:59:26.679Z,6.82
2023-03-15T11:02:28.695Z,5.25
2023-03-15T11:05:44.539Z,5.13
2023-03-15T11:08:46.563Z,5.78
2023-03-15T11:11:51.001Z,5.65
2023-03-15T11:14:57.096Z,4.15
2023-03-15T11:17:59.159Z,3.47
2023-03-15T11:21:03.002Z,5.63
2023-03-15T11:24:06.094Z,2.13
2023-03-15T11:27:19.078Z,3.20
2023-03-15T11:30:25.621Z,3.88
2023-03-15T11:33:34.412Z,1.90
2023-03-15T11:36:38.716Z,2.20
2023-03-15T11:39:53.765Z,1.85
2023-03-15T11:43:01.119Z,4.20
2023-03-15T11:46:13.256Z,4.07
2023-03-15T11:49:31.911Z,2.53
2023-03-15T11:52:34.158Z,2.05
2023-03-15T11:55:37.635Z,1.75
2023-03-15T11:58:44.583Z,1.97
2023-03-15T12:01:51.712Z,2.55
2023-03-15T12:04:54.541Z,2.47
2023-03-15T12:07:58.524Z,2.33
2023-03-15T12:11:00.577Z,1.60
2023-03-15T12:14:02.934Z,1.77
2023-03-15T12:17:23.922Z,1.48
2023-03-15T12:20:39.658Z,1.40
2023-03-15T12:23:41.722Z,1.42
2023-03-15T12:26:51.464Z,1.77
2023-03-15T12:29:59.259Z,2.77
2023-03-15T12:33:02.486Z,1.80
2023-03-15T12:36:16.855Z,2.00
2023-03-15T12:39:18.873Z,1.83
2023-03-15T12:42:31.246Z,2.03
2023-03-15T12:45:40.141Z,1.67
2023-03-15T12:49:02.137Z,2.35
2023-03-15T12:52:07.186Z,2.63
2023-03-15T12:55:16.252Z,2.22
2023-03-15T12:58:19.724Z,1.88
2023-03-15T13:01:25.734Z,2.83
2023-03-15T13:04:28.918Z,1.70
2023-03-15T13:07:52.068Z,3.05
2023-03-15T13:11:03.651Z,3.13
2023-03-15T13:14:24.552Z,1.58
2023-03-15T13:17:41.613Z,1.90
2023-03-15T13:20:52.714Z,1.95
2023-03-15T13:23:56.743Z,1.83
2023-03-15T13:27:02.902Z,2.03
2023-03-15T13:30:28.050Z,2.45
2023-03-15T13:33:31.739Z,3.63
2023-03-15T13:36:41.445Z,4.30
2023-03-15T13:39:57.029Z,1.92
2023-03-15T13:43:00.042Z,2.60
2023-03-15T13:46:02.542Z,3.72
2023-03-15T13:49:04.506Z,3.28
2023-03-15T13:52:12.277Z,5.63
2023-03-15T13:55:17.301Z,3.47
2023-03-15T13:58:19.834Z,4.97
2023-03-15T14:01:23.355Z,4.85
2023-03-15T14:04:26.161Z,3.13
2023-03-15T14:07:32.030Z,2.63
2023-03-15T14:10:37.811Z,3.08
2023-03-15T14:13:58.409Z,4.47
2023-03-15T14:17:05.901Z,4.88
2023-03-15T14:20:12.316Z,6.22
2023-03-15T14:23:15.778Z,3.58
2023-03-15T14:26:22.153Z,2.90
2023-03-15T14:29:32.570Z,5.70
2023-03-15T14:32:38.613Z,5.70
2023-03-15T14:35:44.359Z,7.20
2023-03-15T14:38:51.038Z,4.40
2023-03-15T14:41:53.223Z,5.18
2023-03-15T14:44:55.246Z,3.75
2023-03-15T14:47:59.472Z,5.60
2023-03-15T14:51:01.658Z,5.97
2023-03-15T14:54:04.214Z,3.10
2023-03-15T14:57:06.270Z,6.63
2023-03-15T15:00:13.806Z,3.28
2023-03-15T15:03:22.282Z,3.92
2023-03-15T15:06:24.718Z,8.23
2023-03-15T15:09:28.252Z,5.03
2023-03-15T15:12:30.228Z,3.92
2023-03-15T15:15:40.765Z,6.75
2023-03-15T15:18:49.795Z,6.65
2023-03-15T15:21:51.778Z,6.25
2023-03-15T15:24:53.787Z,6.40
2023-03-15T15:27:55.823Z,8.03
2023-03-15T15:30:57.914Z,8.07
2023-03-15T15:33:59.952Z,6.38
2023-03-15T15:37:02.020Z,7.93
2023-03-15T15:40:08.915Z,6.88
2023-03-15T15:43:12.115Z,9.15
2023-03-15T15:46:14.901Z,4.82
2023-03-15T15:49:17.047Z,6.72
2023-03-15T15:52:19.136Z,6.80
2023-03-15T15:55:23.357Z,3.83
2023-03-15T15:58:26.093Z,4.00
2023-03-15T16:01:28.263Z,3.75
2023-03-15T16:04:30.502Z,5.43
2023-03-15T16:07:32.497Z,5.97
2023-03-15T16:10:35.163Z,6.22
2023-03-15T16:13:37.150Z,5.38
2023-03-15T16:16:39.909Z,5.40
2023-03-15T16:19:42.026Z,5.75
2023-03-15T16:22:46.191Z,4.75
2023-03-15T16:25:50.007Z,7.57
2023-03-15T16:28:52.158Z,5.67
2023-03-15T16:31:55.920Z,6.93
2023-03-15T16:35:01.239Z,5.25
2023-03-15T16:38:05.325Z,5.30
2023-03-15T16:41:07.294Z,6.50
2023-03-15T16:44:12.526Z,5.75
2023-03-15T16:47:14.596Z,6.20
2023-03-15T16:50:16.878Z,5.30
2023-03-15T16:53:19.378Z,6.93
2023-03-15T16:56:21.392Z,5.30
2023-03-15T16:59:23.455Z,7.20
2023-03-15T17:02:27.436Z,6.13
2023-03-15T17:05:31.897Z,6.13
2023-03-15T17:08:33.973Z,6.33
2023-03-15T17:11:37.332Z,10.40
2023-03-15T17:14:39.475Z,6.93
2023-03-15T17:17:41.471Z,9.18
2023-03-15T17:20:43.787Z,9.88
2023-03-15T17:23:46.512Z,11.90
2023-03-15T17:26:48.554Z,15.07
2023-03-15T17:29:50.639Z,13.90
2023-03-15T17:32:53.987Z,11.23
2023-03-15T17:35:58.674Z,9.60
2023-03-15T17:39:02.821Z,9.37
2023-03-15T17:42:04.954Z,12.88
2023-03-15T17:45:23.279Z,19.38
2023-03-15T17:48:25.647Z,16.60
2023-03-15T17:51:28.877Z,8.38
2023-03-15T17:54:30.881Z,8.82
2023-03-15T17:57:32.924Z,7.85
2023-03-15T18:00:35.861Z,8.07
2023-03-15T18:03:38.611Z,8.10
2023-03-15T18:06:40.666Z,7.82
2023-03-15T18:09:42.687Z,10.27
2023-03-15T18:12:46.560Z,8.82
2023-03-15T18:15:49.795Z,7.07
2023-03-15T18:18:51.838Z,6.18
2023-03-15T18:21:53.804Z,5.40
2023-03-15T18:24:55.798Z,10.63
2023-03-15T18:27:57.995Z,13.48
2023-03-15T18:31:00.047Z,9.97
2023-03-15T18:34:03.682Z,14.68
2023-03-15T18:37:05.871Z,13.73
2023-03-15T18:40:08.710Z,13.23
2023-03-15T18:43:14.077Z,12.63
2023-03-15T18:46:17.292Z,8.82
2023-03-15T18:49:19.360Z,11.20
2023-03-15T18:52:22.962Z,8.82
2023-03-15T18:55:25.128Z,7.70
2023-03-15T18:58:27.863Z,8.65
2023-03-15T19:01:29.981Z,7.20
2023-03-15T19:04:32.051Z,7.68
2023-03-15T19:07:34.076Z,9.68
2023-03-15T19:10:36.069Z,7.03
2023-03-15T19:13:38.545Z,5.88
2023-03-15T19:16:40.695Z,9.93
2023-03-15T19:19:42.740Z,9.80
2023-03-15T19:22:45.239Z,7.70
2023-03-15T19:25:47.745Z,8.35
2023-03-15T19:28:49.879Z,10.75
2023-03-15T19:31:51.909Z,7.63
2023-03-15T19:34:53.933Z,9.75
2023-03-15T19:37:57.165Z,14.10
2023-03-15T19:41:03.670Z,10.70
2023-03-15T19:44:05.798Z,10.75
2023-03-15T19:47:07.779Z,11.80
2023-03-15T19:50:11.059Z,16.95
2023-03-15T19:53:13.108Z,11.20
2023-03-15T19:56:15.199Z,11.35
2023-03-15T19:59:17.197Z,9.90
2023-03-15T20:02:19.356Z,6.23
2023-03-15T20:05:22.078Z,11.73
2023-03-15T20:08:26.216Z,7.68
2023-03-15T20:11:29.475Z,7.00
2023-03-15T20:14:31.577Z,8.55
2023-03-15T20:17:33.625Z,12.35
2023-03-15T20:20:36.049Z,13.88
2023-03-15T20:23:38.123Z,14.25
2023-03-15T20:26:40.171Z,14.77
2023-03-15T20:29:42.208Z,10.18
2023-03-15T20:32:44.475Z,16.40
2023-03-15T20:35:46.679Z,18.63
2023-03-15T20:38:48.707Z,21.40
2023-03-15T20:41:50.884Z,11.87
2023-03-15T20:44:53.253Z,14.75
2023-03-15T20:47:55.245Z,16.60
2023-03-15T20:51:03.952Z,14.27
2023-03-15T20:54:05.996Z,10.77
2023-03-15T20:57:08.003Z,11.80
2023-03-15T21:00:17.129Z,11.60
2023-03-15T21:03:19.203Z,10.77
2023-03-15T21:06:21.426Z,9.70
2023-03-15T21:09:23.524Z,7.38
2023-03-15T21:12:25.793Z,11.43
2023-03-15T21:15:27.805Z,8.65
2023-03-15T21:18:30.290Z,10.15
2023-03-15T21:21:32.313Z,10.93
2023-03-15T21:24:40.687Z,9.93
2023-03-15T21:27:42.866Z,8.70
2023-03-15T21:30:44.884Z,17.33
2023-03-15T21:33:48.605Z,16.70
2023-03-15T21:36:52.428Z,15.00
2023-03-15T21:39:54.412Z,12.80
2023-03-15T21:42:56.422Z,10.70
2023-03-15T21:46:02.484Z,10.23
2023-03-15T21:49:04.598Z,7.90
2023-03-15T21:52:06.659Z,9.02
2023-03-15T21:55:09.019Z,8.50
2023-03-15T21:58:11.782Z,8.73
2023-03-15T22:01:16.576Z,7.05
2023-03-15T22:04:18.641Z,9.73
2023-03-15T22:07:20.670Z,8.40
2023-03-15T22:10:23.333Z,8.68
2023-03-15T22:13:26.077Z,10.13
2023-03-15T22:16:28.610Z,8.93
2023-03-15T22:19:31.955Z,6.03
2023-03-15T22:22:33.989Z,8.10
2023-03-15T22:25:37.819Z,6.30
2023-03-15T22:28:39.888Z,6.30
2023-03-15T22:31:41.990Z,8.70
2023-03-15T22:34:46.875Z,6.17
2023-03-15T22:37:49.505Z,8.80
2023-03-15T22:40:59.346Z,7.25
2023-03-15T22:44:01.492Z,7.63
2023-03-15T22:47:03.557Z,9.38
2023-03-15T22:50:05.846Z,7.88
2023-03-15T22:53:07.959Z,9.38
2023-03-15T22:56:09.915Z,10.07
2023-03-15T22:59:11.977Z,10.57
2023-03-15T23:02:13.972Z,14.18
2023-03-15T23:05:15.992Z,8.03
2023-03-15T23:08:18.003Z,9.55
2023-03-15T23:11:19.979Z,11.75
2023-03-15T23:14:22.041Z,9.93
2023-03-15T23:17:24.305Z,6.72
2023-03-15T23:20:26.598Z,7.40
2023-03-15T23:23:28.748Z,7.15
2023-03-15T23:26:37.402Z,10.82
2023-03-15T23:29:53.294Z,2.42
2023-03-15T23:32:58.970Z,9.73
2023-03-15T23:36:01.882Z,8.87
2023-03-15T23:39:05.500Z,8.68
2023-03-15T23:42:07.558Z,7.95
2023-03-15T23:45:10.186Z,9.70
2023-03-15T23:48:12.583Z,7.70
2023-03-15T23:51:14.617Z,7.32
2023-03-15T23:54:16.557Z,7.25
2023-03-15T23:57:18.591Z,5.57
